Time;durP1;ratioP1;P1;durP2;ratioP2;P2;SDS_P1;SDS_P2;PMS_P1;PMS_P2;Temp;Humidity;BMP_temperature;BMP_pressure;BME280_temperature;BME280_humidity;BME280_pressure;Samples;Min_cycle;Max_cycle;Signal;HPM_P1;HPM_P2
2023/12/22 00:02:25;;;;;;;0.30;0.20;;;;;;;6.75;100.00;98981.22;4994278;28;20478;-51
2023/12/22 00:04:52;;;;;;;0.30;0.20;;;;;;;6.68;100.00;98989.38;4976788;28;20918;-51
2023/12/22 00:07:20;;;;;;;0.30;0.20;;;;;;;6.56;100.00;98980.09;4962438;28;21126;-51
2023/12/22 00:09:46;;;;;;;0.30;0.20;;;;;;;6.52;100.00;98950.28;4974085;28;20470;-51
2023/12/22 00:12:13;;;;;;;0.30;0.20;;;;;;;6.50;100.00;98953.91;4977468;28;20821;-51
2023/12/22 00:14:40;;;;;;;0.30;0.20;;;;;;;6.49;100.00;98966.25;4977409;28;20449;-51
2023/12/22 00:17:07;;;;;;;0.30;0.20;;;;;;;6.40;100.00;98963.91;4977404;28;20454;-51
2023/12/22 00:19:33;;;;;;;0.30;0.20;;;;;;;6.48;100.00;98948.69;4977367;28;20486;-51
2023/12/22 00:22:00;;;;;;;0.30;0.20;;;;;;;6.47;100.00;98961.94;4976924;28;20728;-51
2023/12/22 00:24:26;;;;;;;0.30;0.20;;;;;;;6.50;100.00;98954.78;4974235;28;20545;-50
2023/12/22 00:26:53;;;;;;;0.30;0.20;;;;;;;6.53;100.00;98953.81;4957613;28;20571;-51
2023/12/22 00:29:19;;;;;;;0.30;0.17;;;;;;;6.49;100.00;98939.00;4960472;28;20997;-50
2023/12/22 00:31:46;;;;;;;0.30;0.20;;;;;;;6.50;100.00;98917.81;4976955;28;20910;-51
2023/12/22 00:34:13;;;;;;;0.30;0.20;;;;;;;6.49;100.00;98916.09;4978844;28;20447;-51
2023/12/22 00:36:40;;;;;;;0.30;0.20;;;;;;;6.48;100.00;98916.16;4978704;28;20511;-51
2023/12/22 00:39:07;;;;;;;0.30;0.20;;;;;;;6.45;100.00;98906.56;4981221;28;20451;-52
2023/12/22 00:41:33;;;;;;;0.30;0.20;;;;;;;6.39;100.00;98887.41;4994184;28;20477;-51
2023/12/22 00:44:00;;;;;;;0.30;0.20;;;;;;;6.38;100.00;98885.69;4995495;28;20493;-51
2023/12/22 00:46:26;;;;;;;0.30;0.20;;;;;;;6.48;100.00;98887.97;4994359;28;20450;-51
2023/12/22 00:48:53;;;;;;;0.30;0.20;;;;;;;6.41;100.00;98902.28;4987367;28;20455;-51
2023/12/22 00:51:20;;;;;;;0.30;0.20;;;;;;;6.48;100.00;98873.91;4974939;28;20456;-50
2023/12/22 00:53:46;;;;;;;0.30;0.20;;;;;;;6.52;100.00;98900.16;4968831;28;20460;-51
2023/12/22 00:56:13;;;;;;;0.30;0.17;;;;;;;6.51;100.00;98916.91;4970111;28;20451;-51
2023/12/22 00:58:40;;;;;;;0.30;0.20;;;;;;;6.47;100.00;98939.03;4967133;28;20458;-51
2023/12/22 01:01:07;;;;;;;0.30;0.20;;;;;;;6.51;100.00;98940.66;4982337;28;20561;-51
2023/12/22 01:03:34;;;;;;;0.30;0.20;;;;;;;6.65;100.00;98945.47;4977369;28;20899;-51
2023/12/22 01:06:00;;;;;;;0.30;0.20;;;;;;;6.35;100.00;98952.66;4977387;28;20454;-51
2023/12/22 01:08:27;;;;;;;0.30;0.20;;;;;;;6.49;100.00;98953.06;4972590;28;20525;-51
2023/12/22 01:10:54;;;;;;;0.30;0.20;;;;;;;6.72;100.00;98938.22;4985223;28;20473;-51
2023/12/22 01:13:20;;;;;;;0.30;0.20;;;;;;;6.86;100.00;98908.69;4990396;28;20454;-51
2023/12/22 01:15:47;;;;;;;0.30;0.20;;;;;;;7.04;100.00;98929.13;4977363;28;20461;-51
2023/12/22 01:18:13;;;;;;;0.30;0.20;;;;;;;7.11;100.00;98909.47;4979770;28;20454;-51
2023/12/22 01:20:40;;;;;;;0.30;0.20;;;;;;;6.99;100.00;98910.81;4976693;28;20964;-51
2023/12/22 01:23:06;;;;;;;0.30;0.20;;;;;;;7.11;100.00;98934.13;4965395;28;20534;-50
2023/12/22 01:25:33;;;;;;;0.30;0.20;;;;;;;7.11;100.00;98931.47;4976782;28;20522;-51
2023/12/22 01:27:59;;;;;;;0.30;0.20;;;;;;;7.11;100.00;98923.56;4975764;28;20834;-51
2023/12/22 01:30:29;;;;;;;0.30;0.20;;;;;;;6.99;100.00;98928.41;4963401;28;20530;-50
2023/12/22 01:32:55;;;;;;;0.30;0.20;;;;;;;6.98;100.00;98934.63;4956166;28;20461;-51
2023/12/22 01:35:22;;;;;;;0.30;0.20;;;;;;;7.02;100.00;98939.75;4962243;28;20449;-50
2023/12/22 01:37:49;;;;;;;0.30;0.20;;;;;;;6.96;100.00;98928.53;4968578;28;20483;-50
2023/12/22 01:40:16;;;;;;;0.30;0.20;;;;;;;7.08;100.00;98914.88;4956033;28;20527;-51
2023/12/22 01:42:42;;;;;;;0.30;0.10;;;;;;;7.28;100.00;98927.38;4974970;28;20450;-50
2023/12/22 01:45:10;;;;;;;0.30;0.20;;;;;;;7.57;100.00;98923.63;4963290;28;20526;-50
2023/12/22 01:47:37;;;;;;;0.30;0.20;;;;;;;7.76;100.00;98926.41;4963902;28;20450;-51
2023/12/22 01:50:04;;;;;;;0.30;0.20;;;;;;;8.06;98.60;98930.47;4969388;28;20474;-50
2023/12/22 01:52:31;;;;;;;0.30;0.20;;;;;;;8.15;98.91;98953.06;4959846;28;20455;-50
2023/12/22 01:54:58;;;;;;;0.30;0.20;;;;;;;8.26;98.33;98956.16;4972005;28;20514;-51
2023/12/22 01:57:24;;;;;;;0.30;0.20;;;;;;;8.39;96.57;98961.84;4965315;28;20825;-50
2023/12/22 01:59:51;;;;;;;0.30;0.20;;;;;;;8.46;96.25;98966.81;4997845;28;20466;-51
2023/12/22 02:02:17;;;;;;;0.30;0.20;;;;;;;8.51;95.02;98974.59;4970626;28;20903;-51
2023/12/22 02:04:44;;;;;;;0.30;0.20;;;;;;;8.52;95.31;98974.53;4971192;28;21003;-51
2023/12/22 02:07:12;;;;;;;0.30;0.20;;;;;;;8.47;94.57;98979.13;4978974;28;20542;-50
2023/12/22 02:09:38;;;;;;;0.30;0.20;;;;;;;8.17;97.90;98996.22;4978667;28;20532;-50
2023/12/22 02:12:05;;;;;;;0.30;0.20;;;;;;;7.87;100.00;99008.88;4976486;28;20451;-50
2023/12/22 02:14:31;;;;;;;0.30;0.20;;;;;;;7.94;100.00;99012.97;4963748;28;20531;-50
2023/12/22 02:17:42;;;;;;;0.30;0.20;;;;;;;8.03;99.10;99005.56;4976127;28;20794;-50
2023/12/22 02:20:09;;;;;;;0.30;0.20;;;;;;;8.03;97.34;98976.47;4934603;29;20483;-50
2023/12/22 02:22:36;;;;;;;0.30;0.20;;;;;;;8.07;96.62;98981.63;4965997;28;20496;-50
2023/12/22 02:25:03;;;;;;;0.30;0.20;;;;;;;7.96;97.55;98985.56;4967850;28;20491;-52
2023/12/22 02:27:47;;;;;;;0.30;0.20;;;;;;;7.94;97.38;98989.16;4969602;28;20537;-52
2023/12/22 02:30:23;;;;;;;0.30;0.20;;;;;;;8.02;97.32;98973.88;4975014;28;20509;-51
2023/12/22 02:32:58;;;;;;;0.30;0.20;;;;;;;8.00;98.14;98973.94;4969322;28;20538;-51
2023/12/22 02:35:26;;;;;;;0.30;0.20;;;;;;;8.13;97.99;98966.38;4961468;28;20460;-51
2023/12/22 02:37:56;;;;;;;0.30;0.20;;;;;;;8.01;99.01;98961.56;4960411;28;20949;-51
2023/12/22 02:40:24;;;;;;;0.30;0.20;;;;;;;7.96;98.37;98959.13;4970984;28;20486;-51
2023/12/22 02:42:52;;;;;;;0.30;0.20;;;;;;;8.00;99.53;98967.78;4970916;28;20497;-51
2023/12/22 02:45:19;;;;;;;0.30;0.20;;;;;;;7.97;99.00;98963.47;4975512;28;20525;-52
2023/12/22 02:47:46;;;;;;;0.30;0.20;;;;;;;7.94;99.35;98981.22;4975148;28;20638;-51
2023/12/22 02:50:16;;;;;;;0.30;0.20;;;;;;;7.94;99.44;98975.94;4975647;28;20999;-52
2023/12/22 02:52:43;;;;;;;0.30;0.20;;;;;;;7.92;99.37;98989.25;4966186;28;20999;-50
2023/12/22 02:55:09;;;;;;;0.30;0.20;;;;;;;7.98;99.88;98999.59;4969748;28;20483;-50
2023/12/22 02:57:35;;;;;;;0.30;0.20;;;;;;;7.82;100.00;98993.19;4971043;28;20804;-50
2023/12/22 03:00:02;;;;;;;0.30;0.20;;;;;;;7.65;100.00;98980.56;4961212;28;20475;-51
2023/12/22 03:02:29;;;;;;;0.30;0.20;;;;;;;7.49;100.00;98974.13;4974184;28;20516;-50
2023/12/22 03:04:55;;;;;;;0.30;0.20;;;;;;;7.43;100.00;98959.38;4972032;28;20497;-50
2023/12/22 03:07:22;;;;;;;0.30;0.20;;;;;;;7.38;100.00;98956.03;4964266;28;20455;-50
2023/12/22 03:09:48;;;;;;;0.30;0.20;;;;;;;7.50;100.00;98961.78;4961895;28;20479;-50
2023/12/22 03:12:15;;;;;;;0.30;0.20;;;;;;;7.63;100.00;98933.97;4974699;28;20871;-50
2023/12/22 03:14:41;;;;;;;0.30;0.20;;;;;;;7.50;100.00;98928.28;4972407;28;20455;-50
2023/12/22 03:17:08;;;;;;;0.30;0.20;;;;;;;7.48;100.00;98929.25;4967662;28;20451;-51
2023/12/22 03:19:34;;;;;;;0.30;0.20;;;;;;;7.55;100.00;98918.41;4975782;28;20536;-50
2023/12/22 03:22:01;;;;;;;0.30;0.20;;;;;;;7.61;100.00;98926.09;4973683;28;20446;-50
2023/12/22 03:24:28;;;;;;;0.30;0.20;;;;;;;7.56;100.00;98946.56;4971113;28;20578;-51
2023/12/22 03:26:56;;;;;;;0.30;0.20;;;;;;;7.26;100.00;98948.56;4974112;28;20462;-50
2023/12/22 03:29:22;;;;;;;0.30;0.20;;;;;;;7.31;100.00;98973.06;4959715;28;20474;-50
2023/12/22 03:31:48;;;;;;;0.30;0.20;;;;;;;7.08;100.00;98970.38;4969935;28;20462;-50
2023/12/22 03:34:15;;;;;;;0.30;0.20;;;;;;;7.13;100.00;98989.59;4974030;28;20482;-51
2023/12/22 03:36:41;;;;;;;0.30;0.20;;;;;;;7.09;100.00;99006.44;4974710;28;20454;-50
2023/12/22 03:39:08;;;;;;;0.30;0.20;;;;;;;6.92;100.00;98992.97;4974809;28;20550;-51
2023/12/22 03:41:35;;;;;;;0.30;0.17;;;;;;;6.61;100.00;99004.56;4966625;28;20836;-50
2023/12/22 03:44:02;;;;;;;0.30;0.20;;;;;;;6.60;100.00;99009.91;4969469;28;20533;-50
2023/12/22 03:46:28;;;;;;;0.30;0.20;;;;;;;6.59;100.00;99018.75;4961999;28;20944;-49
2023/12/22 03:48:55;;;;;;;0.30;0.20;;;;;;;6.72;100.00;99014.78;4959504;28;20454;-50
2023/12/22 03:51:23;;;;;;;0.30;0.20;;;;;;;6.63;100.00;99005.38;4966037;28;20453;-50
2023/12/22 03:53:49;;;;;;;0.30;0.20;;;;;;;6.69;100.00;99028.06;4973488;28;20490;-50
2023/12/22 03:56:16;;;;;;;0.30;0.20;;;;;;;6.83;100.00;99000.28;4962782;28;20542;-50
2023/12/22 03:58:43;;;;;;;0.30;0.20;;;;;;;6.98;100.00;98968.97;4958545;28;20454;-50
2023/12/22 04:01:13;;;;;;;0.30;0.13;;;;;;;7.00;100.00;98975.09;4973368;28;20513;-50
2023/12/22 04:03:40;;;;;;;0.30;0.20;;;;;;;6.96;100.00;98979.59;4968895;28;20452;-50
2023/12/22 04:06:06;;;;;;;0.30;0.20;;;;;;;7.06;100.00;98988.06;4964726;28;20490;-50
2023/12/22 04:08:33;;;;;;;0.30;0.20;;;;;;;7.00;100.00;98986.50;4973511;28;20529;-50
2023/12/22 04:10:59;;;;;;;0.30;0.20;;;;;;;6.98;100.00;98979.53;4973474;28;21067;-50
2023/12/22 04:13:25;;;;;;;0.30;0.20;;;;;;;6.94;100.00;98972.63;4973372;28;20545;-50
2023/12/22 04:15:52;;;;;;;0.30;0.20;;;;;;;7.09;100.00;98980.00;4961159;28;20546;-50
2023/12/22 04:18:18;;;;;;;0.30;0.20;;;;;;;7.05;100.00;98974.00;4972596;28;20828;-50
2023/12/22 04:20:45;;;;;;;0.30;0.20;;;;;;;7.08;100.00;98971.22;4961872;28;20819;-50
2023/12/22 04:23:12;;;;;;;0.30;0.20;;;;;;;7.13;100.00;98977.22;4972436;28;20454;-51
2023/12/22 04:25:38;;;;;;;0.30;0.20;;;;;;;7.20;100.00;98974.34;4971282;28;20518;-50
2023/12/22 04:28:05;;;;;;;0.30;0.20;;;;;;;7.15;100.00;98990.38;4967140;28;20476;-50
2023/12/22 04:30:31;;;;;;;0.30;0.20;;;;;;;7.12;100.00;98998.41;4965977;28;20476;-50
2023/12/22 04:33:00;;;;;;;0.30;0.20;;;;;;;7.13;100.00;98994.88;4972674;28;20458;-49
2023/12/22 04:35:27;;;;;;;0.30;0.20;;;;;;;7.38;100.00;98986.88;4960592;28;20546;-50
2023/12/22 04:37:53;;;;;;;0.30;0.20;;;;;;;7.68;99.18;99006.06;4973957;28;20546;-51
2023/12/22 04:40:20;;;;;;;0.30;0.20;;;;;;;7.91;97.14;99010.47;4973766;28;20498;-51
2023/12/22 04:42:46;;;;;;;0.30;0.20;;;;;;;8.02;97.31;99016.22;4968475;28;20455;-50
2023/12/22 04:45:13;;;;;;;0.30;0.20;;;;;;;8.09;97.02;99009.78;4973399;28;20492;-50
2023/12/22 04:47:39;;;;;;;0.30;0.20;;;;;;;8.09;97.27;99024.78;4973865;28;20533;-50
2023/12/22 04:50:06;;;;;;;0.30;0.20;;;;;;;8.07;97.61;99027.47;4960887;28;20475;-50
2023/12/22 04:52:33;;;;;;;0.30;0.20;;;;;;;7.91;98.43;99036.91;4973159;28;20477;-50
2023/12/22 04:54:59;;;;;;;0.30;0.20;;;;;;;7.96;98.64;99053.50;4971937;28;20541;-50
2023/12/22 04:57:26;;;;;;;0.30;0.17;;;;;;;7.92;98.62;99038.66;4964321;28;20453;-50
2023/12/22 04:59:52;;;;;;;0.30;0.20;;;;;;;7.86;100.00;99057.41;4976085;28;20817;-50
2023/12/22 05:02:19;;;;;;;0.30;0.20;;;;;;;7.71;100.00;99042.97;4968596;28;20450;-51
2023/12/22 05:04:45;;;;;;;0.30;0.20;;;;;;;7.45;100.00;99043.91;4958653;28;20497;-50
2023/12/22 05:07:12;;;;;;;0.30;0.20;;;;;;;7.45;100.00;99046.56;4976197;28;20450;-50
2023/12/22 05:09:41;;;;;;;0.30;0.20;;;;;;;7.40;100.00;99022.06;4975877;28;20920;-50
2023/12/22 05:12:08;;;;;;;0.30;0.20;;;;;;;7.26;100.00;99021.69;4968150;28;20451;-50
2023/12/22 05:14:35;;;;;;;0.30;0.20;;;;;;;7.39;100.00;99013.25;4969684;28;20454;-50
2023/12/22 05:17:01;;;;;;;0.30;0.20;;;;;;;7.24;100.00;99021.75;4959503;28;21012;-50
2023/12/22 05:19:28;;;;;;;0.30;0.20;;;;;;;7.24;100.00;99024.38;4963076;28;20475;-50
2023/12/22 05:21:56;;;;;;;0.30;0.20;;;;;;;7.15;100.00;99022.09;4976066;28;20508;-51
2023/12/22 05:24:23;;;;;;;0.30;0.20;;;;;;;7.18;100.00;99026.41;4960464;28;21015;-50
2023/12/22 05:26:49;;;;;;;0.30;0.20;;;;;;;7.26;100.00;99017.25;4965623;28;20556;-51
2023/12/22 05:29:16;;;;;;;0.30;0.20;;;;;;;7.35;100.00;99022.22;4975818;28;20481;-50
2023/12/22 05:31:42;;;;;;;0.30;0.20;;;;;;;7.49;100.00;99031.44;4966841;28;20961;-51
2023/12/22 05:34:10;;;;;;;0.30;0.20;;;;;;;7.58;100.00;99025.84;4972212;28;20454;-50
2023/12/22 05:36:36;;;;;;;0.30;0.20;;;;;;;7.70;100.00;99031.53;4976083;28;20461;-50
2023/12/22 05:39:03;;;;;;;0.30;0.20;;;;;;;7.81;100.00;99028.50;4973867;28;20897;-50
2023/12/22 05:41:29;;;;;;;0.30;0.20;;;;;;;7.86;99.58;99026.53;4966540;28;20486;-50
2023/12/22 05:43:56;;;;;;;0.30;0.20;;;;;;;7.92;99.40;99031.56;4976537;28;20820;-51
2023/12/22 05:46:22;;;;;;;0.30;0.20;;;;;;;7.93;99.27;99033.28;4976407;28;20494;-51
2023/12/22 05:48:49;;;;;;;0.30;0.20;;;;;;;8.03;99.96;99028.50;4972962;28;20451;-51
2023/12/22 05:51:17;;;;;;;0.30;0.20;;;;;;;7.96;99.47;99029.69;4956844;28;20471;-51
2023/12/22 05:53:44;;;;;;;0.30;0.20;;;;;;;8.14;98.96;99028.09;4972918;28;20537;-51
2023/12/22 05:56:18;;;;;;;0.30;0.20;;;;;;;8.18;98.50;99043.81;4975666;28;20460;-51
2023/12/22 05:58:46;;;;;;;0.30;0.20;;;;;;;8.02;99.25;99032.09;4975486;28;20450;-50
2023/12/22 06:01:18;;;;;;;0.30;0.20;;;;;;;8.00;99.90;99042.72;4975368;28;20486;-51
2023/12/22 06:03:48;;;;;;;0.30;0.20;;;;;;;7.97;100.00;99042.00;4962276;28;20537;-51
2023/12/22 06:06:15;;;;;;;0.30;0.20;;;;;;;8.13;99.27;99050.22;4976499;28;20556;-50
2023/12/22 06:08:41;;;;;;;0.30;0.20;;;;;;;8.13;98.28;99055.50;4961800;28;20454;-50
2023/12/22 06:11:08;;;;;;;0.30;0.20;;;;;;;8.32;97.18;99054.72;4975015;28;20549;-50
2023/12/22 06:13:34;;;;;;;0.30;0.20;;;;;;;8.39;96.15;99051.88;4962293;28;20459;-51
2023/12/22 06:16:01;;;;;;;0.30;0.20;;;;;;;8.48;95.83;99052.34;4961660;28;20829;-51
2023/12/22 06:18:27;;;;;;;0.30;0.20;;;;;;;8.45;95.48;99067.50;4969293;28;20543;-50
2023/12/22 06:20:54;;;;;;;0.30;0.20;;;;;;;8.49;94.94;99072.59;4961599;28;20482;-50
2023/12/22 06:23:21;;;;;;;0.30;0.20;;;;;;;8.72;94.01;99058.44;4974528;28;20802;-50
2023/12/22 06:25:47;;;;;;;0.30;0.20;;;;;;;8.57;93.99;99069.66;4974823;28;20574;-51
2023/12/22 06:28:16;;;;;;;0.30;0.20;;;;;;;8.58;94.06;99058.13;4967871;28;20591;-50
2023/12/22 06:30:44;;;;;;;0.30;0.20;;;;;;;8.72;93.26;99065.53;4969050;28;20491;-50
2023/12/22 06:33:11;;;;;;;0.30;0.20;;;;;;;8.82;92.89;99070.41;4974194;28;20508;-51
2023/12/22 06:35:40;;;;;;;0.30;0.20;;;;;;;8.88;92.65;99063.97;4961098;28;20454;-52
2023/12/22 06:38:07;;;;;;;0.30;0.20;;;;;;;8.73;93.14;99065.47;4974176;28;20518;-52
2023/12/22 06:40:34;;;;;;;0.30;0.20;;;;;;;8.76;92.23;99064.47;4973848;28;20516;-52
2023/12/22 06:43:01;;;;;;;0.30;0.20;;;;;;;8.67;92.47;99064.88;4969271;28;20473;-51
2023/12/22 06:45:27;;;;;;;0.30;0.20;;;;;;;8.52;93.89;99072.50;4973960;28;20995;-51
2023/12/22 06:47:55;;;;;;;0.30;0.20;;;;;;;8.67;92.96;99071.03;4965666;28;20463;-51
2023/12/22 06:50:22;;;;;;;0.30;0.20;;;;;;;8.72;92.42;99084.06;4969758;28;20441;-52
2023/12/22 06:52:49;;;;;;;0.30;0.20;;;;;;;8.63;92.42;99081.78;4974261;28;20458;-51
2023/12/22 06:55:16;;;;;;;0.30;0.20;;;;;;;8.67;92.11;99083.41;4971264;28;20546;-52
2023/12/22 06:57:43;;;;;;;0.30;0.20;;;;;;;8.54;92.68;99085.69;4954862;28;20508;-51
2023/12/22 07:00:11;;;;;;;0.30;0.20;;;;;;;8.49;91.96;99066.44;4970592;28;20474;-50
2023/12/22 07:02:37;;;;;;;0.30;0.20;;;;;;;8.47;92.37;99082.41;4974150;28;20825;-51
2023/12/22 07:05:10;;;;;;;0.30;0.20;;;;;;;8.52;92.10;99091.03;4957901;28;20511;-51
2023/12/22 07:07:39;;;;;;;0.30;0.20;;;;;;;8.62;92.20;99075.63;4966582;28;20538;-51
2023/12/22 07:10:06;;;;;;;0.30;0.20;;;;;;;8.59;92.26;99100.44;4982365;28;20470;-51
2023/12/22 07:12:32;;;;;;;0.30;0.20;;;;;;;8.60;91.86;99088.94;4974368;28;20806;-52
2023/12/22 07:14:59;;;;;;;0.30;0.20;;;;;;;8.57;92.35;99097.00;4961123;28;20970;-51
2023/12/22 07:17:26;;;;;;;0.30;0.20;;;;;;;8.63;92.34;99100.31;4974597;28;20457;-49
2023/12/22 07:19:52;;;;;;;0.30;0.20;;;;;;;8.60;93.05;99099.53;4956269;28;20897;-50
2023/12/22 07:22:19;;;;;;;0.30;0.20;;;;;;;8.52;93.22;99109.59;4967053;28;21059;-50
2023/12/22 07:24:46;;;;;;;0.30;0.20;;;;;;;8.54;93.42;99118.31;4974883;28;20454;-50
2023/12/22 07:27:12;;;;;;;0.30;0.20;;;;;;;8.68;93.30;99117.78;4974193;28;20493;-51
2023/12/22 07:29:39;;;;;;;0.30;0.20;;;;;;;8.73;93.01;99121.09;4960956;28;20474;-50
2023/12/22 07:32:06;;;;;;;0.30;0.20;;;;;;;8.80;93.11;99132.31;4973797;28;20897;-50
2023/12/22 07:34:32;;;;;;;0.30;0.20;;;;;;;8.66;93.64;99139.97;4967221;28;20459;-51
2023/12/22 07:37:04;;;;;;;0.30;0.20;;;;;;;8.57;93.78;99144.69;4967768;28;20438;-50
2023/12/22 07:39:34;;;;;;;0.30;0.20;;;;;;;8.63;94.36;99148.88;4972878;28;20605;-50
2023/12/22 07:42:03;;;;;;;0.30;0.20;;;;;;;8.56;94.37;99155.34;4972893;28;20450;-50
2023/12/22 07:44:30;;;;;;;0.30;0.20;;;;;;;8.66;94.17;99158.50;4967689;28;20450;-49
2023/12/22 07:46:58;;;;;;;0.30;0.20;;;;;;;8.73;94.50;99162.63;4973886;28;21011;-50
2023/12/22 07:49:28;;;;;;;0.30;0.20;;;;;;;8.78;94.20;99156.25;4973778;28;20474;-51
2023/12/22 07:51:56;;;;;;;0.30;0.20;;;;;;;8.85;94.41;99170.09;4973295;28;20457;-53
2023/12/22 07:54:22;;;;;;;0.30;0.20;;;;;;;8.98;93.49;99160.72;4973489;28;20884;-56
2023/12/22 07:56:50;;;;;;;0.30;0.20;;;;;;;9.08;93.31;99171.84;4957609;28;20465;-54
2023/12/22 07:59:16;;;;;;;0.30;0.20;;;;;;;9.07;93.23;99184.22;4962881;28;21047;-54
2023/12/22 08:01:56;;;;;;;0.30;0.20;;;;;;;8.99;93.16;99156.28;4973582;28;20486;-55
2023/12/22 08:04:22;;;;;;;0.30;0.20;;;;;;;8.92;94.63;99161.00;4962444;28;20463;-51
2023/12/22 08:06:49;;;;;;;0.30;0.20;;;;;;;8.96;95.86;99167.03;4958455;28;20493;-61
2023/12/22 08:09:16;;;;;;;0.30;0.20;;;;;;;8.75;97.22;99169.59;4973329;28;20493;-59
2023/12/22 08:11:46;;;;;;;0.30;0.20;;;;;;;8.82;98.54;99173.72;4973285;28;20966;-60
2023/12/22 08:14:12;;;;;;;0.30;0.20;;;;;;;8.85;98.05;99167.44;4962283;28;20847;-61
2023/12/22 08:16:39;;;;;;;0.30;0.20;;;;;;;9.00;98.69;99156.22;4972504;28;20486;-59
2023/12/22 08:19:06;;;;;;;0.30;0.20;;;;;;;8.94;97.83;99156.47;4972797;28;20456;-59
2023/12/22 08:21:33;;;;;;;0.30;0.20;;;;;;;9.05;97.97;99148.09;4959989;28;20454;-59
2023/12/22 08:24:11;;;;;;;0.30;0.20;;;;;;;9.01;97.74;99167.69;4972794;28;20450;-62
2023/12/22 08:26:48;;;;;;;0.30;0.20;;;;;;;9.19;96.99;99166.97;4964198;28;20541;-50
2023/12/22 08:29:15;;;;;;;0.30;0.20;;;;;;;9.14;95.50;99169.78;4967484;28;20458;-51
2023/12/22 08:31:43;;;;;;;0.30;0.20;;;;;;;9.05;95.59;99178.13;4975084;28;20454;-51
2023/12/22 08:34:10;;;;;;;0.30;0.20;;;;;;;9.22;94.14;99179.22;4963519;28;20473;-50
2023/12/22 08:36:37;;;;;;;0.30;0.20;;;;;;;9.27;93.97;99188.69;4976361;28;20458;-51
2023/12/22 08:39:07;;;;;;;0.30;0.20;;;;;;;9.22;94.19;99187.19;4976389;28;21048;-52
2023/12/22 08:41:36;;;;;;;0.30;0.20;;;;;;;9.22;94.13;99182.75;4967040;28;20498;-49
2023/12/22 08:44:05;;;;;;;0.30;0.20;;;;;;;9.37;93.32;99176.78;4974451;28;20454;-49
2023/12/22 08:46:32;;;;;;;0.30;0.20;;;;;;;9.33;93.23;99172.56;4976371;28;20518;-49
2023/12/22 08:48:59;;;;;;;0.30;0.20;;;;;;;9.43;93.07;99165.06;4971747;28;20474;-49
2023/12/22 08:51:27;;;;;;;0.30;0.20;;;;;;;9.41;94.12;99165.13;4992694;23;20485;-55
2023/12/22 08:53:57;;;;;;;0.30;0.20;;;;;;;9.44;93.42;99164.13;5015560;28;20452;-52
2023/12/22 08:56:24;;;;;;;0.30;0.20;;;;;;;9.51;92.94;99155.00;5018042;28;20941;-52
2023/12/22 08:58:52;;;;;;;0.30;0.20;;;;;;;9.54;92.28;99159.31;5017731;28;20546;-52
2023/12/22 09:01:19;;;;;;;0.30;0.20;;;;;;;9.49;91.95;99162.16;5017238;28;20469;-52
2023/12/22 09:03:46;;;;;;;0.30;0.20;;;;;;;9.51;92.31;99162.94;5010182;28;21056;-52
2023/12/22 09:06:17;;;;;;;0.30;0.20;;;;;;;9.50;92.02;99162.09;5009649;28;20488;-52
2023/12/22 09:08:44;;;;;;;0.30;0.20;;;;;;;9.58;91.70;99180.31;5008395;28;20488;-52
2023/12/22 09:11:16;;;;;;;0.30;0.20;;;;;;;9.84;91.69;99179.19;4997195;28;20465;-52
2023/12/22 09:13:43;;;;;;;0.30;0.20;;;;;;;9.66;90.71;99180.88;5008088;28;20472;-51
2023/12/22 09:16:10;;;;;;;0.30;0.20;;;;;;;9.78;91.19;99182.13;5008737;28;20535;-51
2023/12/22 09:18:37;;;;;;;0.30;0.20;;;;;;;9.85;91.50;99191.53;4996509;28;20481;-51
2023/12/22 09:21:03;;;;;;;0.30;0.20;;;;;;;9.84;91.50;99184.50;5009873;28;20564;-52
2023/12/22 09:23:31;;;;;;;0.30;0.20;;;;;;;9.88;91.50;99183.47;5005316;28;20807;-52
2023/12/22 09:25:58;;;;;;;0.30;0.20;;;;;;;9.83;91.32;99188.09;5003238;28;20930;-52
2023/12/22 09:28:25;;;;;;;0.30;0.20;;;;;;;9.86;91.61;99184.44;5007388;28;20453;-52
2023/12/22 09:30:52;;;;;;;0.30;0.20;;;;;;;10.01;91.62;99197.06;5008202;28;20485;-52
2023/12/22 09:33:18;;;;;;;0.30;0.20;;;;;;;10.00;91.77;99176.75;4995074;28;20450;-52
2023/12/22 09:35:45;;;;;;;0.30;0.20;;;;;;;9.98;91.45;99179.47;5007641;28;20889;-52
2023/12/22 09:38:14;;;;;;;0.30;0.20;;;;;;;9.98;91.28;99174.16;4995409;28;20456;-52
2023/12/22 09:40:41;;;;;;;0.30;0.20;;;;;;;10.04;90.99;99171.25;4991789;28;21011;-53
2023/12/22 09:43:08;;;;;;;0.30;0.20;;;;;;;10.05;91.20;99169.44;4994124;28;20454;-52
2023/12/22 09:45:37;;;;;;;0.30;0.20;;;;;;;10.13;91.08;99166.44;4999104;28;20491;-52
2023/12/22 09:48:05;;;;;;;0.30;0.20;;;;;;;10.01;90.93;99163.44;5003414;28;20520;-51
2023/12/22 09:50:33;;;;;;;0.30;0.20;;;;;;;10.01;91.00;99147.50;5009731;28;20507;-57
2023/12/22 09:53:01;;;;;;;0.30;0.20;;;;;;;10.20;90.63;99159.94;5008806;28;20448;-52
2023/12/22 09:55:30;;;;;;;0.30;0.20;;;;;;;10.18;90.19;99159.16;5009367;28;21003;-51
2023/12/22 09:57:58;;;;;;;0.30;0.20;;;;;;;10.13;90.07;99140.75;5007842;28;20576;-52
2023/12/22 10:00:28;;;;;;;0.30;0.20;;;;;;;10.21;89.98;99148.38;5001948;28;20543;-59
2023/12/22 10:02:55;;;;;;;0.30;0.20;;;;;;;10.27;89.99;99154.28;5002488;28;20653;-52
2023/12/22 10:05:22;;;;;;;0.80;0.80;;;;;;;10.26;90.42;99144.59;4997878;28;20428;-52
2023/12/22 10:07:50;;;;;;;0.30;0.20;;;;;;;10.23;90.55;99147.41;5010432;28;20496;-52
2023/12/22 10:10:18;;;;;;;0.30;0.20;;;;;;;10.32;90.27;99136.38;5001466;28;20453;-52
2023/12/22 10:12:45;;;;;;;0.30;0.20;;;;;;;10.34;90.04;99131.84;5009254;28;20480;-53
2023/12/22 10:15:13;;;;;;;0.30;0.20;;;;;;;10.46;89.67;99138.38;5002837;28;20510;-53
2023/12/22 10:17:40;;;;;;;0.30;0.20;;;;;;;10.41;90.35;99128.88;5000711;28;20988;-52
2023/12/22 10:20:08;;;;;;;0.30;0.20;;;;;;;10.37;89.75;99126.38;5006446;28;20548;-53
2023/12/22 10:22:34;;;;;;;0.30;0.20;;;;;;;10.44;90.38;99128.78;5007921;28;20480;-52
2023/12/22 10:25:02;;;;;;;0.30;0.20;;;;;;;10.54;89.34;99125.59;4982425;28;20465;-52
2023/12/22 10:27:29;;;;;;;0.30;0.20;;;;;;;10.43;89.53;99119.06;5006882;28;20864;-52
2023/12/22 10:29:56;;;;;;;0.30;0.20;;;;;;;10.48;89.84;99125.03;5001797;28;20483;-52
2023/12/22 10:32:23;;;;;;;0.30;0.20;;;;;;;10.49;90.79;99102.84;4999919;28;20501;-52
2023/12/22 10:34:52;;;;;;;0.30;0.20;;;;;;;10.37;90.88;99113.09;5004993;28;20540;-52
2023/12/22 10:37:21;;;;;;;0.30;0.20;;;;;;;10.45;90.66;99110.09;5007515;28;20498;-52
2023/12/22 10:39:52;;;;;;;0.30;0.20;;;;;;;10.44;90.90;99097.75;4984748;28;20453;-53
2023/12/22 10:42:19;;;;;;;0.30;0.20;;;;;;;10.57;90.45;99096.22;5007053;28;20497;-52
2023/12/22 10:44:46;;;;;;;0.30;0.20;;;;;;;10.43;90.44;99093.38;4997708;28;20536;-55
2023/12/22 10:47:14;;;;;;;0.30;0.20;;;;;;;10.44;90.55;99088.91;4997206;28;20525;-53
2023/12/22 10:49:41;;;;;;;0.30;0.20;;;;;;;10.50;90.83;99072.69;4992637;28;20454;-52
2023/12/22 10:52:14;;;;;;;0.30;0.20;;;;;;;10.50;91.39;99070.03;5004072;28;20552;-52
2023/12/22 10:54:41;;;;;;;0.30;0.20;;;;;;;10.50;90.75;99072.69;5004439;28;21094;-52
2023/12/22 10:57:10;;;;;;;0.30;0.20;;;;;;;10.52;91.09;99073.47;5000009;28;20532;-53
2023/12/22 10:59:42;;;;;;;0.30;0.20;;;;;;;10.36;91.74;99058.25;5001603;28;20504;-51
2023/12/22 11:02:22;;;;;;;0.30;0.20;;;;;;;10.45;92.05;99064.06;5002257;28;20919;-52
2023/12/22 11:05:04;;;;;;;0.30;0.20;;;;;;;10.39;93.00;99067.88;5000456;28;20441;-51
2023/12/22 11:07:35;;;;;;;0.30;0.20;;;;;;;10.54;93.04;99063.63;5004643;28;20513;-53
2023/12/22 11:10:04;;;;;;;0.30;0.20;;;;;;;10.30;93.79;99058.56;4998789;28;20442;-55
2023/12/22 11:12:38;;;;;;;0.30;0.20;;;;;;;10.40;94.46;99061.63;5005943;28;20469;-52
2023/12/22 11:15:06;;;;;;;0.30;0.20;;;;;;;10.42;95.41;99077.50;5001027;28;20472;-52
2023/12/22 11:17:34;;;;;;;0.30;0.20;;;;;;;10.29;95.82;99061.28;5001565;28;20553;-53
2023/12/22 11:20:03;;;;;;;0.30;0.20;;;;;;;10.05;97.60;99069.44;5009356;28;20449;-53
2023/12/22 11:22:32;;;;;;;0.30;0.20;;;;;;;10.32;98.05;99067.31;5009517;28;20479;-53
2023/12/22 11:25:00;;;;;;;0.30;0.20;;;;;;;10.20;98.73;99051.91;5001355;28;20473;-52
2023/12/22 11:27:28;;;;;;;0.30;0.20;;;;;;;10.27;98.26;99050.72;4998990;28;20963;-52
2023/12/22 11:29:55;;;;;;;0.30;0.20;;;;;;;10.26;98.07;99043.69;5004947;28;20472;-53
2023/12/22 11:32:22;;;;;;;0.30;0.20;;;;;;;10.19;99.08;99042.22;5006574;28;20469;-52
2023/12/22 11:34:49;;;;;;;0.30;0.20;;;;;;;10.24;98.93;99037.59;5002691;28;20448;-53
2023/12/22 11:37:16;;;;;;;0.30;0.20;;;;;;;10.19;99.22;99039.56;4999869;28;20470;-53
2023/12/22 11:39:43;;;;;;;0.30;0.20;;;;;;;10.18;99.75;99040.50;5005304;28;20432;-52